Share

Pungoteague, VA (23422)

Davis Wharf (KVABELLE2) Elev 0 ft | 37.55 °N, 75.88 °W | Change Station

Current weather conditions updated 14 minutes ago

Clear
Clear
52.3 °F
Feels Like 52.3 °F
N
9.9
Wind Variable Wind from East
Sunrise 6:22 AM
Sunset 7:42 PM
Moon Waning Gibbous

Tomorrow is forecast to be nearly the same temperature as today.

Pressure 30.25 in
Visibility 10.0 miles
Clouds Clear
Dew Point 38 °F
Humidity 58%
Rainfall 0.00 in
Snow Depth Not available.
UV 0 out of 16
Pollen 3.80 out of 12
Air Quality Not available.
Flu Activity Regional
METAR KMFV 200115Z AUTO 07010G15KT 10SM CLR 10/01 A3025 RMK AO2

More Conditions Fewer Conditions

Pressure 30.25 in
Visibility 10.0 miles
Clouds Clear
Dew Point 38 °F
Humidity 58%
Rainfall 0.00 in
Snow Depth Not available.
UV 0 out of 16
Pollen 3.80 out of 12
Air Quality Not available.
Flu Activity Regional
METAR KMFV 200115Z AUTO 07010G15KT 10SM CLR 10/01 A3025 RMK AO2

More Conditions Fewer Conditions

10-Day Weather Forecast

Almanac

Astronomy

Apr. 19, 2014 Rise Set
Actual Time 6:22 AM EDT 7:42 PM EDT
Civil Twilight 5:55 AM EDT 8:09 PM EDT
Nautical Twilight 5:23 AM EDT 8:42 PM EDT
Astronomical Twilight 4:48 AM EDT 9:16 PM EDT
Moon No Moon Rise 9:41 AM EDT (4/19)
Length of Visible Light 14h 14m
Length of Day
13h 19m
Tomorrow will be 2m 14s longer.
Waning Gibbous, 75% of the Moon is Illuminated
Today
Waning Gibbous
Apr 22
Last Quarter
Apr 29
New
May 6
First Quarter
May 14
Full

Today's Extremes

State Highs State Lows

Community

  • Cherry Blossoms
    Cherry Blossoms
  • White-Crowned Sparrow
    White-Crowned Sparrow
  • New Day
    New Day
  • Happy Easter!
    Happy Easter!
  • poppy bloom near Mazar-e-Sharif
    poppy bloom near Mazar-e-Sharif

WunderPhotos

Upload Photos

1,703,018 photos uploaded!

WunderBlogs® & News

Nearby

Snow Depth

Station Depth Elevation
No new snow has been reported.

Coastal Water Temperatures

Place Temperature
Kiptopeke, VA 52.0 °F
Yorktown, VA 55.0 °F
Wachapreague, VA 54.0 °F

Earthquake Activity

City Distance Mag. Time & Date
No recent earthquake activity has been reported nearby.
Minimum magnitude displayed is 2.5.

Nearby Weather Stations

Station Location Temp. Dew Point Humidity Wind Precip. Elev Updated Type
Davis Wharf, Belle Haven, VA 52.3 °F 38 °F 58% East  at  9.9 mph - / hr 0 ft 9:20 PM EDT Normal
The Frog and PenguINN, Onley, VA 50.8 °F 38 °F 61% ENE  at  1.0 mph 0.00 in / hr 35 ft 9:34 PM EDT Rapid Fire
Parkers Creek tidal marsh, Parksley, VA 50.3 °F 41 °F 71% NE  at  4.0 mph 0.00 in / hr 15 ft 9:33 PM EDT Normal
County Rd, Parksley, VA 50.2 °F 38 °F 64% East  at  0.0 mph 0.00 in / hr 39 ft 9:31 PM EDT Normal
Turkey's Rest, Bloxom, VA 51.1 °F 42 °F 72% NE  at  0.9 mph 0.00 in / hr 23 ft 9:34 PM EDT Rapid Fire

Show More Stations Show Fewer Stations

What do you think?

We're not finished. Please let us know what you like, what you don't like, and what you are still missing.